sensor_id;sensor_type;location;lat;lon;timestamp;pressure;altitude;pressure_sealevel;temperature;humidity
32452;BME280;45528;52.102;5.242;2023-04-05T00:01:05;102152.0;;;8.49;55.56
32452;BME280;45528;52.102;5.242;2023-04-05T00:04:18;102152.0;;;8.52;55.41
32452;BME280;45528;52.102;5.242;2023-04-05T00:05:54;102149.0;;;8.53;55.21
32452;BME280;45528;52.102;5.242;2023-04-05T00:07:30;102143.0;;;8.41;55.62
32452;BME280;45528;52.102;5.242;2023-04-05T00:10:42;102144.0;;;8.41;55.48
32452;BME280;45528;52.102;5.242;2023-04-05T00:12:18;102143.0;;;8.34;55.82
32452;BME280;45528;52.102;5.242;2023-04-05T00:13:59;102141.0;;;8.31;56.07
32452;BME280;45528;52.102;5.242;2023-04-05T00:17:12;102144.0;;;8.25;56.12
32452;BME280;45528;52.102;5.242;2023-04-05T00:18:48;102138.0;;;8.35;55.43
32452;BME280;45528;52.102;5.242;2023-04-05T00:20:24;102140.0;;;8.33;55.47
32452;BME280;45528;52.102;5.242;2023-04-05T00:22:00;102140.0;;;8.31;55.71
32452;BME280;45528;52.102;5.242;2023-04-05T00:25:12;102140.0;;;8.34;55.43
32452;BME280;45528;52.102;5.242;2023-04-05T00:26:49;102137.0;;;8.34;55.3
32452;BME280;45528;52.102;5.242;2023-04-05T00:28:25;102137.0;;;8.2;55.29
32452;BME280;45528;52.102;5.242;2023-04-05T00:31:37;102134.0;;;8.3;55.17
32452;BME280;45528;52.102;5.242;2023-04-05T00:33:13;102135.0;;;8.23;55.36
32452;BME280;45528;52.102;5.242;2023-04-05T00:34:49;102132.0;;;8.15;55.43
32452;BME280;45528;52.102;5.242;2023-04-05T00:38:02;102134.0;;;8.08;55.87
32452;BME280;45528;52.102;5.242;2023-04-05T00:39:38;102127.0;;;8.08;55.57
32452;BME280;45528;52.102;5.242;2023-04-05T00:41:14;102127.0;;;8.07;55.43
32452;BME280;45528;52.102;5.242;2023-04-05T00:44:26;102126.0;;;7.97;55.96
32452;BME280;45528;52.102;5.242;2023-04-05T00:46:03;102124.0;;;7.94;55.91
32452;BME280;45528;52.102;5.242;2023-04-05T00:47:40;102130.0;;;7.99;55.45
32452;BME280;45528;52.102;5.242;2023-04-05T00:49:17;102127.0;;;8.01;55.32
32452;BME280;45528;52.102;5.242;2023-04-05T00:52:30;102121.0;;;7.84;56.0
32452;BME280;45528;52.102;5.242;2023-04-05T00:54:08;102120.0;;;7.81;55.97
32452;BME280;45528;52.102;5.242;2023-04-05T00:55:45;102118.0;;;7.83;55.76
32452;BME280;45528;52.102;5.242;2023-04-05T00:58:58;102120.0;;;7.71;56.36
32452;BME280;45528;52.102;5.242;2023-04-05T01:00:35;102117.0;;;7.68;56.58
32452;BME280;45528;52.102;5.242;2023-04-05T01:02:17;102116.0;;;7.69;56.3
32452;BME280;45528;52.102;5.242;2023-04-05T01:04:04;102113.0;;;7.72;55.99
32452;BME280;45528;52.102;5.242;2023-04-05T01:07:28;102111.0;;;7.71;56.11
32452;BME280;45528;52.102;5.242;2023-04-05T01:09:13;102106.0;;;7.58;56.22
32452;BME280;45528;52.102;5.242;2023-04-05T01:10:56;102110.0;;;7.56;56.48
32452;BME280;45528;52.102;5.242;2023-04-05T01:12:34;102108.0;;;7.59;56.18
32452;BME280;45528;52.102;5.242;2023-04-05T01:15:49;102105.0;;;7.58;56.12
32452;BME280;45528;52.102;5.242;2023-04-05T01:17:28;102099.0;;;7.48;56.57
32452;BME280;45528;52.102;5.242;2023-04-05T01:19:04;102100.0;;;7.51;56.42
32452;BME280;45528;52.102;5.242;2023-04-05T01:20:45;102101.0;;;7.54;56.1
32452;BME280;45528;52.102;5.242;2023-04-05T01:23:24;102100.0;;;7.48;56.11
32452;BME280;45528;52.102;5.242;2023-04-05T01:25:48;102102.0;;;7.51;56.03
32452;BME280;45528;52.102;5.242;2023-04-05T01:27:44;102095.0;;;7.43;56.13
32452;BME280;45528;52.102;5.242;2023-04-05T01:29:37;102091.0;;;7.43;55.98
32452;BME280;45528;52.102;5.242;2023-04-05T01:31:31;102093.0;;;7.45;55.83
32452;BME280;45528;52.102;5.242;2023-04-05T01:33:14;102093.0;;;7.3;56.58
32452;BME280;45528;52.102;5.242;2023-04-05T01:36:47;102089.0;;;7.26;56.52
32452;BME280;45528;52.102;5.242;2023-04-05T01:38:30;102088.0;;;7.24;56.62
32452;BME280;45528;52.102;5.242;2023-04-05T01:40:08;102085.0;;;7.21;56.61
32452;BME280;45528;52.102;5.242;2023-04-05T01:41:45;102084.0;;;7.11;57.01
32452;BME280;45528;52.102;5.242;2023-04-05T01:44:57;102083.0;;;7.13;56.6
32452;BME280;45528;52.102;5.242;2023-04-05T01:46:34;102083.0;;;7.09;56.68
32452;BME280;45528;52.102;5.242;2023-04-05T01:48:11;102084.0;;;7.09;56.65
32452;BME280;45528;52.102;5.242;2023-04-05T01:51:23;102083.0;;;7.03;56.95
32452;BME280;45528;52.102;5.242;2023-04-05T01:52:59;102078.0;;;6.84;57.62
32452;BME280;45528;52.102;5.242;2023-04-05T01:54:35;102080.0;;;6.74;58.58
32452;BME280;45528;52.102;5.242;2023-04-05T01:56:12;102078.0;;;6.74;58.4
32452;BME280;45528;52.102;5.242;2023-04-05T01:59:24;102071.0;;;6.71;58.6
32452;BME280;45528;52.102;5.242;2023-04-05T02:01:00;102077.0;;;6.92;57.74
32452;BME280;45528;52.102;5.242;2023-04-05T02:02:36;102074.0;;;6.92;57.53
32452;BME280;45528;52.102;5.242;2023-04-05T02:05:48;102069.0;;;6.95;57.25
32452;BME280;45528;52.102;5.242;2023-04-05T02:07:25;102068.0;;;7.0;56.98
32452;BME280;45528;52.102;5.242;2023-04-05T02:09:02;102068.0;;;6.94;57.37
32452;BME280;45528;52.102;5.242;2023-04-05T02:12:14;102067.0;;;6.94;57.55
32452;BME280;45528;52.102;5.242;2023-04-05T02:13:50;102068.0;;;6.91;57.24
32452;BME280;45528;52.102;5.242;2023-04-05T02:15:26;102067.0;;;6.86;57.22
32452;BME280;45528;52.102;5.242;2023-04-05T02:18:38;102065.0;;;6.8;57.46
32452;BME280;45528;52.102;5.242;2023-04-05T02:20:14;102061.0;;;6.77;57.55
32452;BME280;45528;52.102;5.242;2023-04-05T02:21:51;102055.0;;;6.71;57.77
32452;BME280;45528;52.102;5.242;2023-04-05T02:23:29;102055.0;;;6.66;58.12
32452;BME280;45528;52.102;5.242;2023-04-05T02:26:42;102053.0;;;6.67;57.92
32452;BME280;45528;52.102;5.242;2023-04-05T02:28:18;102055.0;;;6.81;57.42
32452;BME280;45528;52.102;5.242;2023-04-05T02:29:54;102053.0;;;6.76;57.65
32452;BME280;45528;52.102;5.242;2023-04-05T02:33:08;102048.0;;;6.65;58.24
32452;BME280;45528;52.102;5.242;2023-04-05T02:34:44;102050.0;;;6.63;58.45
32452;BME280;45528;52.102;5.242;2023-04-05T02:36:20;102049.0;;;6.71;57.66
32452;BME280;45528;52.102;5.242;2023-04-05T02:39:32;102048.0;;;6.79;57.26
32452;BME280;45528;52.102;5.242;2023-04-05T02:41:09;102046.0;;;6.64;58.08
32452;BME280;45528;52.102;5.242;2023-04-05T02:42:45;102044.0;;;6.58;58.44
32452;BME280;45528;52.102;5.242;2023-04-05T02:44:22;102040.0;;;6.66;58.01
32452;BME280;45528;52.102;5.242;2023-04-05T02:47:34;102040.0;;;6.75;57.63
32452;BME280;45528;52.102;5.242;2023-04-05T02:49:10;102036.0;;;6.67;58.19
32452;BME280;45528;52.102;5.242;2023-04-05T02:50:47;102039.0;;;6.59;58.4
32452;BME280;45528;52.102;5.242;2023-04-05T02:54:00;102034.0;;;6.54;58.42
32452;BME280;45528;52.102;5.242;2023-04-05T02:55:36;102033.0;;;6.51;58.27
32452;BME280;45528;52.102;5.242;2023-04-05T02:57:13;102036.0;;;6.51;58.6
32452;BME280;45528;52.102;5.242;2023-04-05T03:00:25;102033.0;;;6.55;58.42
32452;BME280;45528;52.102;5.242;2023-04-05T03:02:01;102030.0;;;6.65;57.71
32452;BME280;45528;52.102;5.242;2023-04-05T03:03:37;102030.0;;;6.59;58.03
32452;BME280;45528;52.102;5.242;2023-04-05T03:05:14;102024.0;;;6.55;58.29
32452;BME280;45528;52.102;5.242;2023-04-05T03:08:26;102020.0;;;6.52;58.63
32452;BME280;45528;52.102;5.242;2023-04-05T03:10:02;102020.0;;;6.47;58.27
32452;BME280;45528;52.102;5.242;2023-04-05T03:11:38;102022.0;;;6.51;58.01
32452;BME280;45528;52.102;5.242;2023-04-05T03:14:50;102016.0;;;6.6;57.28
32452;BME280;45528;52.102;5.242;2023-04-05T03:16:26;102017.0;;;6.59;57.62
32452;BME280;45528;52.102;5.242;2023-04-05T03:18:03;102016.0;;;6.71;56.66
32452;BME280;45528;52.102;5.242;2023-04-05T03:21:15;102014.0;;;6.67;56.66
32452;BME280;45528;52.102;5.242;2023-04-05T03:22:51;102012.0;;;6.74;56.38
32452;BME280;45528;52.102;5.242;2023-04-05T03:24:27;102013.0;;;6.61;57.29
32452;BME280;45528;52.102;5.242;2023-04-05T03:27:40;102008.0;;;6.5;57.71
32452;BME280;45528;52.102;5.242;2023-04-05T03:29:16;102011.0;;;6.46;57.79
32452;BME280;45528;52.102;5.242;2023-04-05T03:30:52;102007.0;;;6.56;56.95
32452;BME280;45528;52.102;5.242;2023-04-05T03:32:28;102008.0;;;6.54;57.32
32452;BME280;45528;52.102;5.242;2023-04-05T03:35:41;102010.0;;;6.58;56.85
32452;BME280;45528;52.102;5.242;2023-04-05T03:37:17;102013.0;;;6.65;56.36
32452;BME280;45528;52.102;5.242;2023-04-05T03:38:54;102012.0;;;6.64;56.76
32452;BME280;45528;52.102;5.242;2023-04-05T03:42:07;102012.0;;;6.54;57.12
32452;BME280;45528;52.102;5.242;2023-04-05T03:43:43;102010.0;;;6.47;57.38
32452;BME280;45528;52.102;5.242;2023-04-05T03:45:19;102006.0;;;6.42;57.65
32452;BME280;45528;52.102;5.242;2023-04-05T03:48:32;102003.0;;;6.38;57.84
32452;BME280;45528;52.102;5.242;2023-04-05T03:50:09;102002.0;;;6.37;57.89
32452;BME280;45528;52.102;5.242;2023-04-05T03:51:45;102000.0;;;6.35;57.59
32452;BME280;45528;52.102;5.242;2023-04-05T03:53:21;102000.0;;;6.31;58.05
32452;BME280;45528;52.102;5.242;2023-04-05T03:56:33;102001.0;;;6.33;58.05
32452;BME280;45528;52.102;5.242;2023-04-05T03:58:09;102009.0;;;6.35;57.41
32452;BME280;45528;52.102;5.242;2023-04-05T03:59:45;102006.0;;;6.29;57.86
32452;BME280;45528;52.102;5.242;2023-04-05T04:02:58;102005.0;;;6.29;58.49
32452;BME280;45528;52.102;5.242;2023-04-05T04:04:34;102007.0;;;6.29;58.31
32452;BME280;45528;52.102;5.242;2023-04-05T04:06:10;102005.0;;;6.25;58.37
32452;BME280;45528;52.102;5.242;2023-04-05T04:09:22;102005.0;;;6.29;58.25
32452;BME280;45528;52.102;5.242;2023-04-05T04:10:59;102007.0;;;6.28;58.14
32452;BME280;45528;52.102;5.242;2023-04-05T04:12:35;102006.0;;;6.28;58.65
32452;BME280;45528;52.102;5.242;2023-04-05T04:15:47;102003.0;;;6.26;58.47
32452;BME280;45528;52.102;5.242;2023-04-05T04:17:26;102002.0;;;6.23;58.49
32452;BME280;45528;52.102;5.242;2023-04-05T04:19:03;102002.0;;;6.21;58.72
32452;BME280;45528;52.102;5.242;2023-04-05T04:20:39;102005.0;;;6.2;58.72
32452;BME280;45528;52.102;5.242;2023-04-05T04:23:52;102001.0;;;6.15;58.76
32452;BME280;45528;52.102;5.242;2023-04-05T04:25:28;102005.0;;;6.2;58.29
32452;BME280;45528;52.102;5.242;2023-04-05T04:27:04;102003.0;;;6.25;57.55
32452;BME280;45528;52.102;5.242;2023-04-05T04:30:17;101994.0;;;6.17;58.12
32452;BME280;45528;52.102;5.242;2023-04-05T04:31:53;101995.0;;;6.19;58.29
32452;BME280;45528;52.102;5.242;2023-04-05T04:33:30;101994.0;;;6.15;58.29
32452;BME280;45528;52.102;5.242;2023-04-05T04:36:42;101997.0;;;6.26;57.52
32452;BME280;45528;52.102;5.242;2023-04-05T04:38:18;101999.0;;;6.25;57.77
32452;BME280;45528;52.102;5.242;2023-04-05T04:39:54;101997.0;;;6.18;58.06
32452;BME280;45528;52.102;5.242;2023-04-05T04:41:30;101998.0;;;6.15;58.16
32452;BME280;45528;52.102;5.242;2023-04-05T04:44:45;102002.0;;;6.16;58.17
32452;BME280;45528;52.102;5.242;2023-04-05T04:46:21;102000.0;;;6.17;58.0
32452;BME280;45528;52.102;5.242;2023-04-05T04:47:57;102000.0;;;6.09;58.52
32452;BME280;45528;52.102;5.242;2023-04-05T04:51:09;102000.0;;;6.08;59.01
32452;BME280;45528;52.102;5.242;2023-04-05T04:52:46;102002.0;;;6.08;58.68
32452;BME280;45528;52.102;5.242;2023-04-05T04:54:23;101994.0;;;6.15;57.91
32452;BME280;45528;52.102;5.242;2023-04-05T04:57:35;101993.0;;;6.14;57.93
32452;BME280;45528;52.102;5.242;2023-04-05T04:59:11;101995.0;;;6.14;58.04
32452;BME280;45528;52.102;5.242;2023-04-05T05:00:47;101995.0;;;6.1;58.28
32452;BME280;45528;52.102;5.242;2023-04-05T05:02:23;101999.0;;;6.07;58.5
32452;BME280;45528;52.102;5.242;2023-04-05T05:05:41;101997.0;;;6.05;58.55
32452;BME280;45528;52.102;5.242;2023-04-05T05:07:18;101995.0;;;6.06;58.11
32452;BME280;45528;52.102;5.242;2023-04-05T05:08:54;101998.0;;;6.05;59.03
32452;BME280;45528;52.102;5.242;2023-04-05T05:12:06;101995.0;;;6.06;58.25
32452;BME280;45528;52.102;5.242;2023-04-05T05:13:42;101991.0;;;6.05;58.36
32452;BME280;45528;52.102;5.242;2023-04-05T05:15:18;101987.0;;;6.01;58.71
32452;BME280;45528;52.102;5.242;2023-04-05T05:18:31;101988.0;;;6.05;58.34
32452;BME280;45528;52.102;5.242;2023-04-05T05:20:09;101990.0;;;6.06;58.36
32452;BME280;45528;52.102;5.242;2023-04-05T05:21:45;101989.0;;;6.03;58.79
32452;BME280;45528;52.102;5.242;2023-04-05T05:23:21;101990.0;;;6.05;58.77
32452;BME280;45528;52.102;5.242;2023-04-05T05:26:33;101989.0;;;6.1;58.49
32452;BME280;45528;52.102;5.242;2023-04-05T05:28:09;101985.0;;;6.06;58.41
32452;BME280;45528;52.102;5.242;2023-04-05T05:29:46;101987.0;;;6.08;58.65
32452;BME280;45528;52.102;5.242;2023-04-05T05:32:58;101989.0;;;6.08;58.63
32452;BME280;45528;52.102;5.242;2023-04-05T05:34:34;101992.0;;;6.12;58.63
32452;BME280;45528;52.102;5.242;2023-04-05T05:36:10;101988.0;;;6.15;58.54
32452;BME280;45528;52.102;5.242;2023-04-05T05:39:23;101985.0;;;6.18;58.66
32452;BME280;45528;52.102;5.242;2023-04-05T05:40:59;101988.0;;;6.18;58.89
32452;BME280;45528;52.102;5.242;2023-04-05T05:42:35;101984.0;;;6.2;58.98
32452;BME280;45528;52.102;5.242;2023-04-05T05:44:11;101987.0;;;6.24;58.81
32452;BME280;45528;52.102;5.242;2023-04-05T05:47:24;101991.0;;;6.27;58.77
32452;BME280;45528;52.102;5.242;2023-04-05T05:49:00;101988.0;;;6.29;58.6
32452;BME280;45528;52.102;5.242;2023-04-05T05:50:37;101993.0;;;6.34;58.23
32452;BME280;45528;52.102;5.242;2023-04-05T05:53:49;101994.0;;;6.48;57.7
32452;BME280;45528;52.102;5.242;2023-04-05T05:55:25;101997.0;;;6.49;57.9
32452;BME280;45528;52.102;5.242;2023-04-05T05:57:01;101998.0;;;6.49;58.35
32452;BME280;45528;52.102;5.242;2023-04-05T06:00:15;101997.0;;;6.54;58.37
32452;BME280;45528;52.102;5.242;2023-04-05T06:01:51;102000.0;;;6.55;58.59
32452;BME280;45528;52.102;5.242;2023-04-05T06:03:30;101997.0;;;6.66;58.03
32452;BME280;45528;52.102;5.242;2023-04-05T06:06:42;101998.0;;;6.66;58.08
32452;BME280;45528;52.102;5.242;2023-04-05T06:08:18;101997.0;;;6.71;58.21
32452;BME280;45528;52.102;5.242;2023-04-05T06:09:54;101999.0;;;6.73;58.31
32452;BME280;45528;52.102;5.242;2023-04-05T06:11:30;102002.0;;;6.8;58.02
32452;BME280;45528;52.102;5.242;2023-04-05T06:14:43;102003.0;;;6.85;57.61
32452;BME280;45528;52.102;5.242;2023-04-05T06:16:19;102005.0;;;7.02;57.42
32452;BME280;45528;52.102;5.242;2023-04-05T06:17:55;102005.0;;;7.16;57.41
32452;BME280;45528;52.102;5.242;2023-04-05T06:21:07;102005.0;;;7.27;56.37
32452;BME280;45528;52.102;5.242;2023-04-05T06:22:43;102005.0;;;7.28;56.51
32452;BME280;45528;52.102;5.242;2023-04-05T06:24:19;102003.0;;;7.44;55.34
32452;BME280;45528;52.102;5.242;2023-04-05T06:27:32;102007.0;;;7.42;56.3
32452;BME280;45528;52.102;5.242;2023-04-05T06:29:08;102001.0;;;7.53;56.24
32452;BME280;45528;52.102;5.242;2023-04-05T06:30:44;102000.0;;;7.52;56.65
32452;BME280;45528;52.102;5.242;2023-04-05T06:32:20;102000.0;;;7.7;55.51
32452;BME280;45528;52.102;5.242;2023-04-05T06:35:32;102003.0;;;7.79;53.99
32452;BME280;45528;52.102;5.242;2023-04-05T06:37:09;102002.0;;;7.84;54.82
32452;BME280;45528;52.102;5.242;2023-04-05T06:38:45;102005.0;;;8.01;54.27
32452;BME280;45528;52.102;5.242;2023-04-05T06:41:57;102000.0;;;8.1;54.5
32452;BME280;45528;52.102;5.242;2023-04-05T06:43:33;102000.0;;;8.36;53.0
32452;BME280;45528;52.102;5.242;2023-04-05T06:45:10;102005.0;;;8.55;52.41
32452;BME280;45528;52.102;5.242;2023-04-05T06:48:23;102001.0;;;8.67;52.01
32452;BME280;45528;52.102;5.242;2023-04-05T06:49:59;101998.0;;;8.83;52.15
32452;BME280;45528;52.102;5.242;2023-04-05T06:51:35;101999.0;;;8.98;50.83
32452;BME280;45528;52.102;5.242;2023-04-05T06:54:47;101997.0;;;9.23;50.21
32452;BME280;45528;52.102;5.242;2023-04-05T06:56:23;101996.0;;;9.35;49.31
32452;BME280;45528;52.102;5.242;2023-04-05T06:57:59;101994.0;;;9.5;48.8
32452;BME280;45528;52.102;5.242;2023-04-05T06:59:36;101996.0;;;9.69;48.52
32452;BME280;45528;52.102;5.242;2023-04-05T07:02:48;102000.0;;;9.86;48.03
32452;BME280;45528;52.102;5.242;2023-04-05T07:04:24;101997.0;;;10.08;47.68
32452;BME280;45528;52.102;5.242;2023-04-05T07:06:00;101999.0;;;10.21;47.34
32452;BME280;45528;52.102;5.242;2023-04-05T07:09:14;102000.0;;;10.42;46.67
32452;BME280;45528;52.102;5.242;2023-04-05T07:10:50;102000.0;;;10.62;46.84
32452;BME280;45528;52.102;5.242;2023-04-05T07:12:27;101998.0;;;10.68;46.34
32452;BME280;45528;52.102;5.242;2023-04-05T07:15:39;102001.0;;;10.92;46.11
32452;BME280;45528;52.102;5.242;2023-04-05T07:17:15;101997.0;;;11.09;45.22
32452;BME280;45528;52.102;5.242;2023-04-05T07:18:51;101995.0;;;11.23;44.66
32452;BME280;45528;52.102;5.242;2023-04-05T07:20:28;101991.0;;;11.33;43.75
32452;BME280;45528;52.102;5.242;2023-04-05T07:23:40;101994.0;;;11.46;44.57
32452;BME280;45528;52.102;5.242;2023-04-05T07:25:16;101994.0;;;11.57;43.72
32452;BME280;45528;52.102;5.242;2023-04-05T07:26:52;101996.0;;;11.77;43.02
32452;BME280;45528;52.102;5.242;2023-04-05T07:30:06;101998.0;;;11.9;42.88
32452;BME280;45528;52.102;5.242;2023-04-05T07:31:42;101999.0;;;12.22;42.19
32452;BME280;45528;52.102;5.242;2023-04-05T07:33:19;101999.0;;;12.37;42.18
32452;BME280;45528;52.102;5.242;2023-04-05T07:36:31;101994.0;;;12.53;41.7
32452;BME280;45528;52.102;5.242;2023-04-05T07:38:07;101994.0;;;12.54;41.68
32452;BME280;45528;52.102;5.242;2023-04-05T07:39:43;101992.0;;;12.68;40.67
32452;BME280;45528;52.102;5.242;2023-04-05T07:42:56;101993.0;;;12.67;40.49
32452;BME280;45528;52.102;5.242;2023-04-05T07:44:32;101995.0;;;12.78;40.36
32452;BME280;45528;52.102;5.242;2023-04-05T07:46:08;101993.0;;;12.85;39.25
32452;BME280;45528;52.102;5.242;2023-04-05T07:47:44;101992.0;;;13.1;40.06
32452;BME280;45528;52.102;5.242;2023-04-05T07:51:02;101985.0;;;13.17;40.24
32452;BME280;45528;52.102;5.242;2023-04-05T07:52:38;101988.0;;;13.23;39.67
32452;BME280;45528;52.102;5.242;2023-04-05T07:54:14;101992.0;;;13.3;39.06
32452;BME280;45528;52.102;5.242;2023-04-05T07:57:27;101990.0;;;13.43;38.33
32452;BME280;45528;52.102;5.242;2023-04-05T07:59:04;101985.0;;;13.56;38.12
32452;BME280;45528;52.102;5.242;2023-04-05T08:00:40;101985.0;;;13.8;38.6
32452;BME280;45528;52.102;5.242;2023-04-05T08:02:16;101985.0;;;13.93;37.96
32452;BME280;45528;52.102;5.242;2023-04-05T08:05:29;101984.0;;;14.04;37.81
32452;BME280;45528;52.102;5.242;2023-04-05T08:07:05;101985.0;;;14.18;37.28
32452;BME280;45528;52.102;5.242;2023-04-05T08:08:42;101984.0;;;14.21;35.85
32452;BME280;45528;52.102;5.242;2023-04-05T08:11:55;101985.0;;;14.3;36.53
32452;BME280;45528;52.102;5.242;2023-04-05T08:13:31;101986.0;;;14.51;37.03
32452;BME280;45528;52.102;5.242;2023-04-05T08:15:08;101983.0;;;14.53;35.6
32452;BME280;45528;52.102;5.242;2023-04-05T08:18:21;101984.0;;;14.77;35.03
32452;BME280;45528;52.102;5.242;2023-04-05T08:19:58;101981.0;;;14.77;34.78
32452;BME280;45528;52.102;5.242;2023-04-05T08:21:34;101980.0;;;14.93;35.57
32452;BME280;45528;52.102;5.242;2023-04-05T08:24:46;101982.0;;;14.86;35.68
32452;BME280;45528;52.102;5.242;2023-04-05T08:26:22;101982.0;;;14.97;35.07
32452;BME280;45528;52.102;5.242;2023-04-05T08:27:58;101976.0;;;15.07;34.11
32452;BME280;45528;52.102;5.242;2023-04-05T08:29:34;101981.0;;;15.15;33.99
32452;BME280;45528;52.102;5.242;2023-04-05T08:32:46;101982.0;;;14.99;32.74
32452;BME280;45528;52.102;5.242;2023-04-05T08:34:23;101978.0;;;15.51;33.04
32452;BME280;45528;52.102;5.242;2023-04-05T08:36:03;101978.0;;;15.59;32.36
32452;BME280;45528;52.102;5.242;2023-04-05T08:39:15;101976.0;;;15.63;33.31
32452;BME280;45528;52.102;5.242;2023-04-05T08:40:51;101975.0;;;15.64;33.17
32452;BME280;45528;52.102;5.242;2023-04-05T08:42:29;101971.0;;;15.76;33.19
32452;BME280;45528;52.102;5.242;2023-04-05T08:44:09;101974.0;;;15.81;33.28
32452;BME280;45528;52.102;5.242;2023-04-05T08:47:27;101970.0;;;15.89;32.6
32452;BME280;45528;52.102;5.242;2023-04-05T08:49:05;101967.0;;;15.67;31.07
32452;BME280;45528;52.102;5.242;2023-04-05T08:50:48;101964.0;;;15.62;30.68
32452;BME280;45528;52.102;5.242;2023-04-05T08:54:01;101967.0;;;15.78;30.62
32452;BME280;45528;52.102;5.242;2023-04-05T08:55:38;101967.0;;;15.81;31.26
32452;BME280;45528;52.102;5.242;2023-04-05T08:57:15;101966.0;;;15.7;31.02
32452;BME280;45528;52.102;5.242;2023-04-05T08:58:56;101966.0;;;15.44;31.09
32452;BME280;45528;52.102;5.242;2023-04-05T09:02:14;101957.0;;;15.51;31.07
32452;BME280;45528;52.102;5.242;2023-04-05T09:03:53;101962.0;;;15.53;30.21
32452;BME280;45528;52.102;5.242;2023-04-05T09:05:31;101964.0;;;15.75;30.2
32452;BME280;45528;52.102;5.242;2023-04-05T09:07:13;101962.0;;;15.73;31.62
32452;BME280;45528;52.102;5.242;2023-04-05T09:10:26;101961.0;;;15.81;30.49
32452;BME280;45528;52.102;5.242;2023-04-05T09:12:05;101962.0;;;15.97;30.23
32452;BME280;45528;52.102;5.242;2023-04-05T09:13:42;101963.0;;;16.09;30.57
32452;BME280;45528;52.102;5.242;2023-04-05T09:16:56;101955.0;;;16.2;31.43
32452;BME280;45528;52.102;5.242;2023-04-05T09:18:35;101957.0;;;16.27;30.76
32452;BME280;45528;52.102;5.242;2023-04-05T09:20:11;101959.0;;;16.31;30.57
32452;BME280;45528;52.102;5.242;2023-04-05T09:22:04;101963.0;;;16.5;30.27
32452;BME280;45528;52.102;5.242;2023-04-05T09:25:36;101961.0;;;16.75;30.09
32452;BME280;45528;52.102;5.242;2023-04-05T09:27:14;101957.0;;;16.79;30.39
32452;BME280;45528;52.102;5.242;2023-04-05T09:28:50;101955.0;;;16.64;29.2
32452;BME280;45528;52.102;5.242;2023-04-05T09:30:26;101955.0;;;16.61;29.8
32452;BME280;45528;52.102;5.242;2023-04-05T09:33:40;101953.0;;;16.65;30.03
32452;BME280;45528;52.102;5.242;2023-04-05T09:35:18;101947.0;;;16.14;28.51
32452;BME280;45528;52.102;5.242;2023-04-05T09:36:57;101948.0;;;16.52;29.81
32452;BME280;45528;52.102;5.242;2023-04-05T09:38:48;101950.0;;;16.68;29.75
32452;BME280;45528;52.102;5.242;2023-04-05T09:42:18;101946.0;;;16.89;29.49
32452;BME280;45528;52.102;5.242;2023-04-05T09:43:54;101946.0;;;16.87;29.31
32452;BME280;45528;52.102;5.242;2023-04-05T09:45:37;101949.0;;;16.91;29.5
32452;BME280;45528;52.102;5.242;2023-04-05T09:47:14;101939.0;;;17.12;27.37
32452;BME280;45528;52.102;5.242;2023-04-05T09:50:27;101939.0;;;17.23;27.71
32452;BME280;45528;52.102;5.242;2023-04-05T09:52:03;101939.0;;;17.47;27.7
32452;BME280;45528;52.102;5.242;2023-04-05T09:53:55;101941.0;;;17.36;27.83
32452;BME280;45528;52.102;5.242;2023-04-05T09:55:32;101939.0;;;17.5;29.53
32452;BME280;45528;52.102;5.242;2023-04-05T09:58:49;101939.0;;;17.61;27.42
32452;BME280;45528;52.102;5.242;2023-04-05T10:00:27;101937.0;;;17.62;28.81
32452;BME280;45528;52.102;5.242;2023-04-05T10:02:04;101933.0;;;17.55;30.14
32452;BME280;45528;52.102;5.242;2023-04-05T10:03:45;101937.0;;;17.37;29.6
32452;BME280;45528;52.102;5.242;2023-04-05T10:06:59;101935.0;;;17.25;27.5
32452;BME280;45528;52.102;5.242;2023-04-05T10:08:35;101933.0;;;17.23;28.73
32452;BME280;45528;52.102;5.242;2023-04-05T10:10:12;101930.0;;;17.25;28.0
32452;BME280;45528;52.102;5.242;2023-04-05T10:13:26;101930.0;;;17.56;28.69
32452;BME280;45528;52.102;5.242;2023-04-05T10:15:04;101923.0;;;17.77;27.83
32452;BME280;45528;52.102;5.242;2023-04-05T10:16:45;101922.0;;;17.96;26.99
32452;BME280;45528;52.102;5.242;2023-04-05T10:18:39;101922.0;;;18.25;26.36
32452;BME280;45528;52.102;5.242;2023-04-05T10:22:01;101914.0;;;17.91;27.7
32452;BME280;45528;52.102;5.242;2023-04-05T10:23:43;101914.0;;;18.36;27.63
32452;BME280;45528;52.102;5.242;2023-04-05T10:25:24;101912.0;;;18.38;29.33
32452;BME280;45528;52.102;5.242;2023-04-05T10:27:29;101911.0;;;18.27;28.97
32452;BME280;45528;52.102;5.242;2023-04-05T10:29:11;101909.0;;;18.2;29.33
32452;BME280;45528;52.102;5.242;2023-04-05T10:31:01;101906.0;;;18.25;29.39
32452;BME280;45528;52.102;5.242;2023-04-05T10:34:41;101905.0;;;18.21;27.24
32452;BME280;45528;52.102;5.242;2023-04-05T10:36:28;101895.0;;;17.96;29.32
32452;BME280;45528;52.102;5.242;2023-04-05T10:38:23;101905.0;;;17.93;29.62
32452;BME280;45528;52.102;5.242;2023-04-05T10:40:02;101902.0;;;18.31;29.29
32452;BME280;45528;52.102;5.242;2023-04-05T10:41:41;101906.0;;;18.36;29.24
32452;BME280;45528;52.102;5.242;2023-04-05T10:45:02;101905.0;;;18.25;29.9
32452;BME280;45528;52.102;5.242;2023-04-05T10:46:44;101895.0;;;18.29;28.56
32452;BME280;45528;52.102;5.242;2023-04-05T10:48:30;101901.0;;;18.27;29.08
32452;BME280;45528;52.102;5.242;2023-04-05T10:50:20;101897.0;;;18.2;29.89
32452;BME280;45528;52.102;5.242;2023-04-05T10:51:57;101896.0;;;18.34;29.66
32452;BME280;45528;52.102;5.242;2023-04-05T10:55:13;101892.0;;;18.32;28.37
32452;BME280;45528;52.102;5.242;2023-04-05T10:56:52;101883.0;;;18.09;28.76
32452;BME280;45528;52.102;5.242;2023-04-05T10:58:29;101887.0;;;18.36;29.4
32452;BME280;45528;52.102;5.242;2023-04-05T11:01:46;101886.0;;;18.47;29.41
32452;BME280;45528;52.102;5.242;2023-04-05T11:03:55;101885.0;;;18.38;30.55
32452;BME280;45528;52.102;5.242;2023-04-05T11:05:33;101885.0;;;18.36;30.07
32452;BME280;45528;52.102;5.242;2023-04-05T11:07:11;101880.0;;;18.46;30.15
32452;BME280;45528;52.102;5.242;2023-04-05T11:08:50;101877.0;;;18.38;29.15
32452;BME280;45528;52.102;5.242;2023-04-05T11:12:06;101881.0;;;18.25;28.92
32452;BME280;45528;52.102;5.242;2023-04-05T11:13:51;101872.0;;;17.75;28.83